Time;durP1;ratioP1;P1;durP2;ratioP2;P2;SDS_P1;SDS_P2;PMS_P1;PMS_P2;Temp;Humidity;BMP_temperature;BMP_pressure;BME280_temperature;BME280_humidity;BME280_pressure;Samples;Min_cycle;Max_cycle;Signal;HPM_P1;HPM_P2
2023/07/25 00:01:24;;;;;;;1.13;0.22;;;15.20;99.90;;;;;;5031008;28;20052;-67
2023/07/25 00:03:49;;;;;;;0.00;0.00;;;15.20;99.90;;;;;;5029322;28;20049;-67
2023/07/25 00:06:15;;;;;;;0.00;0.00;;;15.20;99.90;;;;;;5031417;28;20055;-67
2023/07/25 00:08:41;;;;;;;0.00;0.00;;;15.20;99.90;;;;;;5023887;28;20203;-67
2023/07/25 00:11:12;;;;;;;0.32;0.20;;;15.20;99.90;;;;;;5022161;28;20136;-67
2023/07/25 00:13:38;;;;;;;0.20;0.20;;;15.20;99.90;;;;;;5023160;28;20496;-67
2023/07/25 00:16:04;;;;;;;0.00;0.00;;;15.20;99.90;;;;;;5032465;28;20049;-67
2023/07/25 00:18:29;;;;;;;8.27;1.05;;;15.10;99.90;;;;;;5030856;28;20083;-67
2023/07/25 00:20:55;;;;;;;0.20;0.20;;;15.10;99.90;;;;;;5026827;28;20133;-67
2023/07/25 00:23:21;;;;;;;0.03;0.03;;;15.00;99.90;;;;;;5022198;28;20041;-67
2023/07/25 00:25:46;;;;;;;0.10;0.10;;;15.00;99.90;;;;;;5031376;28;20076;-67
2023/07/25 00:28:12;;;;;;;7.32;0.90;;;15.00;99.90;;;;;;5027100;28;20043;-67
2023/07/25 00:30:39;;;;;;;0.00;0.00;;;15.00;99.90;;;;;;5025478;28;20052;-67
2023/07/25 00:33:05;;;;;;;0.00;0.00;;;15.00;99.90;;;;;;5026435;28;20053;-67
2023/07/25 00:35:31;;;;;;;0.08;0.08;;;14.90;99.90;;;;;;5026897;28;20500;-67
2023/07/25 00:37:56;;;;;;;0.10;0.10;;;14.90;99.90;;;;;;5021076;28;20069;-67
2023/07/25 00:40:22;;;;;;;0.00;0.00;;;14.80;99.90;;;;;;5026193;28;20064;-67
2023/07/25 00:42:54;;;;;;;0.00;0.00;;;14.80;99.90;;;;;;5029083;28;20041;-67
2023/07/25 00:45:19;;;;;;;0.00;0.00;;;14.80;99.90;;;;;;5028334;28;20042;-67
2023/07/25 00:47:45;;;;;;;0.00;0.00;;;14.80;99.90;;;;;;5021097;28;20606;-67
2023/07/25 00:50:11;;;;;;;0.30;0.30;;;14.80;99.90;;;;;;5029922;28;20091;-67
2023/07/25 00:52:37;;;;;;;0.00;0.00;;;14.80;99.90;;;;;;5021673;28;20038;-67
2023/07/25 00:55:03;;;;;;;0.00;0.00;;;14.90;99.90;;;;;;5027555;28;20041;-67
2023/07/25 00:57:30;;;;;;;0.00;0.00;;;14.80;99.90;;;;;;5021387;28;20041;-67
2023/07/25 00:59:56;;;;;;;0.20;0.20;;;14.80;99.90;;;;;;5030209;28;20048;-67
2023/07/25 01:02:22;;;;;;;0.20;0.20;;;14.80;99.90;;;;;;5030419;28;20052;-67
2023/07/25 01:04:48;;;;;;;0.00;0.00;;;14.80;99.90;;;;;;5020616;28;20030;-67
2023/07/25 01:07:14;;;;;;;0.28;0.28;;;14.90;99.90;;;;;;5027241;28;20103;-67
2023/07/25 01:09:46;;;;;;;0.00;0.00;;;14.80;99.90;;;;;;5026765;28;20033;-67
2023/07/25 01:12:12;;;;;;;0.08;0.08;;;14.90;99.90;;;;;;5020591;28;20092;-67
2023/07/25 01:14:39;;;;;;;0.00;0.00;;;14.90;99.90;;;;;;5027574;28;20129;-67
2023/07/25 01:17:05;;;;;;;0.28;0.28;;;14.90;99.90;;;;;;5020906;28;20152;-67
2023/07/25 01:19:33;;;;;;;0.20;0.20;;;14.90;99.90;;;;;;5024647;28;20125;-67
2023/07/25 01:21:58;;;;;;;0.10;0.10;;;14.90;99.90;;;;;;5021543;28;20073;-67
2023/07/25 01:24:24;;;;;;;0.88;0.70;;;14.90;99.90;;;;;;5022394;28;20457;-67
2023/07/25 01:26:50;;;;;;;0.00;0.00;;;15.00;99.90;;;;;;5022991;28;20037;-67
2023/07/25 01:29:16;;;;;;;1.10;1.10;;;14.90;99.90;;;;;;5021636;28;20080;-67
2023/07/25 01:31:41;;;;;;;0.10;0.10;;;15.00;99.90;;;;;;5026758;28;20049;-67
2023/07/25 01:34:07;;;;;;;2.17;2.00;;;15.00;99.90;;;;;;5023455;28;20400;-67
2023/07/25 01:36:32;;;;;;;0.00;0.00;;;15.00;99.90;;;;;;5019423;28;20053;-67
2023/07/25 01:38:58;;;;;;;0.00;0.00;;;15.00;99.90;;;;;;5028000;28;20042;-67
2023/07/25 01:41:23;;;;;;;0.10;0.10;;;15.00;99.90;;;;;;5015930;28;20042;-67
2023/07/25 01:43:49;;;;;;;0.00;0.00;;;15.00;99.90;;;;;;5023128;28;20042;-68
2023/07/25 01:46:15;;;;;;;0.00;0.00;;;14.90;99.90;;;;;;5021159;28;20099;-67
2023/07/25 01:48:40;;;;;;;0.25;0.25;;;15.00;99.90;;;;;;5024846;28;20069;-67
2023/07/25 01:51:08;;;;;;;0.00;0.00;;;15.00;99.90;;;;;;5022606;28;20045;-67
2023/07/25 01:53:34;;;;;;;0.10;0.10;;;14.90;99.90;;;;;;5034126;28;20048;-67
2023/07/25 01:55:59;;;;;;;0.00;0.00;;;14.90;99.90;;;;;;5024872;28;20030;-67
2023/07/25 01:58:25;;;;;;;0.10;0.10;;;14.90;99.90;;;;;;5021853;28;20092;-67
2023/07/25 02:00:59;;;;;;;0.20;0.20;;;14.90;99.90;;;;;;5029758;28;20046;-67
2023/07/25 02:03:28;;;;;;;0.63;0.63;;;14.80;99.90;;;;;;5022485;28;20076;-67
2023/07/25 02:05:53;;;;;;;0.00;0.00;;;14.80;99.90;;;;;;5027206;28;20430;-67
2023/07/25 02:08:19;;;;;;;0.00;0.00;;;14.90;99.90;;;;;;5031483;28;20116;-67
2023/07/25 02:10:45;;;;;;;0.15;0.15;;;14.80;99.90;;;;;;5026076;28;20029;-67
2023/07/25 02:13:10;;;;;;;0.00;0.00;;;14.80;99.90;;;;;;5019385;28;20735;-67
2023/07/25 02:15:37;;;;;;;0.00;0.00;;;14.80;99.90;;;;;;5021307;28;20044;-67
2023/07/25 02:18:03;;;;;;;3.75;1.63;;;14.80;99.90;;;;;;5026640;28;20069;-67
2023/07/25 02:20:32;;;;;;;0.00;0.00;;;14.70;99.90;;;;;;5020695;28;20652;-67
2023/07/25 02:22:58;;;;;;;0.75;0.47;;;14.70;99.90;;;;;;5025287;28;20051;-67
2023/07/25 02:25:26;;;;;;;0.15;0.15;;;14.70;99.90;;;;;;5027003;28;20029;-67
2023/07/25 02:27:51;;;;;;;0.00;0.00;;;14.60;99.90;;;;;;5028711;28;20049;-67
2023/07/25 02:30:17;;;;;;;0.00;0.00;;;14.50;99.90;;;;;;5026950;28;20049;-67
2023/07/25 02:32:43;;;;;;;0.00;0.00;;;14.50;99.90;;;;;;5023865;28;20489;-67
2023/07/25 02:35:08;;;;;;;0.20;0.20;;;14.40;99.90;;;;;;5026240;28;20077;-67
2023/07/25 02:37:34;;;;;;;0.10;0.10;;;14.40;99.90;;;;;;5026854;28;20037;-67
2023/07/25 02:39:59;;;;;;;8.68;0.70;;;14.30;99.90;;;;;;5018959;28;20045;-67
2023/07/25 02:42:25;;;;;;;0.00;0.00;;;14.30;99.90;;;;;;5025792;28;20049;-67
2023/07/25 02:44:51;;;;;;;0.00;0.00;;;14.20;99.90;;;;;;5015319;28;20046;-67
2023/07/25 02:47:16;;;;;;;0.03;0.03;;;14.20;99.90;;;;;;5024925;28;20064;-67
2023/07/25 02:49:42;;;;;;;0.00;0.00;;;14.20;99.90;;;;;;5024109;28;20083;-67
2023/07/25 02:52:07;;;;;;;0.65;0.65;;;14.20;99.90;;;;;;5022217;28;20053;-67
2023/07/25 02:54:33;;;;;;;0.00;0.00;;;14.10;99.90;;;;;;5023175;28;20041;-67
2023/07/25 02:56:59;;;;;;;0.03;0.03;;;14.00;99.90;;;;;;5023202;28;20416;-67
2023/07/25 02:59:24;;;;;;;0.10;0.10;;;14.00;99.90;;;;;;5023545;28;20049;-67
2023/07/25 03:01:50;;;;;;;2.55;0.95;;;14.00;99.90;;;;;;5020205;28;20466;-67
2023/07/25 03:04:15;;;;;;;0.35;0.35;;;13.90;99.90;;;;;;5030747;28;20046;-67
2023/07/25 03:06:41;;;;;;;0.00;0.00;;;13.90;99.90;;;;;;5021884;28;20775;-67
2023/07/25 03:09:07;;;;;;;0.00;0.00;;;13.80;99.90;;;;;;5026539;28;20038;-67
2023/07/25 03:11:33;;;;;;;0.00;0.00;;;13.80;99.90;;;;;;5026547;28;20045;-67
2023/07/25 03:13:58;;;;;;;0.00;0.00;;;13.70;99.90;;;;;;5024738;28;20064;-67
2023/07/25 03:16:24;;;;;;;0.00;0.00;;;13.60;99.90;;;;;;5024121;28;20045;-67
2023/07/25 03:18:50;;;;;;;0.10;0.10;;;13.60;99.90;;;;;;5031663;28;20521;-67
2023/07/25 03:21:15;;;;;;;0.10;0.10;;;13.60;99.90;;;;;;5026999;28;20060;-67
2023/07/25 03:23:41;;;;;;;0.00;0.00;;;13.60;99.90;;;;;;5026798;28;20061;-67
2023/07/25 03:26:06;;;;;;;0.00;0.00;;;13.60;99.90;;;;;;5019441;28;20104;-67
2023/07/25 03:28:32;;;;;;;3.83;2.92;;;13.60;99.90;;;;;;5022982;28;20049;-67
2023/07/25 03:30:58;;;;;;;0.00;0.00;;;13.70;99.90;;;;;;5027344;28;20041;-67
2023/07/25 03:33:23;;;;;;;0.10;0.10;;;13.70;99.90;;;;;;5019856;28;20054;-67
2023/07/25 03:35:49;;;;;;;0.77;0.43;;;13.70;99.90;;;;;;5030312;28;20422;-67
2023/07/25 03:38:15;;;;;;;2.17;1.98;;;13.70;99.90;;;;;;5033125;28;20515;-67
2023/07/25 03:40:40;;;;;;;0.10;0.10;;;13.70;99.90;;;;;;5028240;28;20037;-67
2023/07/25 03:43:06;;;;;;;10.77;3.20;;;13.60;99.90;;;;;;5026034;28;20625;-67
2023/07/25 03:45:31;;;;;;;0.10;0.10;;;13.60;99.90;;;;;;5023312;28;20050;-67
2023/07/25 03:47:57;;;;;;;0.10;0.10;;;13.60;99.90;;;;;;5028345;28;20037;-67
2023/07/25 03:50:22;;;;;;;0.05;0.05;;;13.50;99.90;;;;;;5022239;28;20045;-67
2023/07/25 03:52:48;;;;;;;0.00;0.00;;;13.60;99.90;;;;;;5030359;28;20070;-67
2023/07/25 03:55:14;;;;;;;0.00;0.00;;;13.50;99.90;;;;;;5030416;28;20060;-67
2023/07/25 03:57:39;;;;;;;0.17;0.17;;;13.50;99.90;;;;;;5026238;28;20041;-67
2023/07/25 04:00:05;;;;;;;2.63;0.32;;;13.50;99.90;;;;;;5025011;28;20041;-67
2023/07/25 04:02:31;;;;;;;0.03;0.03;;;13.50;99.90;;;;;;5022066;28;20536;-67
2023/07/25 04:04:56;;;;;;;0.00;0.00;;;13.50;99.90;;;;;;5032593;28;20080;-67
2023/07/25 04:07:22;;;;;;;1.10;1.00;;;13.50;99.90;;;;;;5020846;28;20041;-67
2023/07/25 04:09:48;;;;;;;0.00;0.00;;;13.50;99.90;;;;;;5017792;28;20042;-67
2023/07/25 04:12:13;;;;;;;0.00;0.00;;;13.50;99.90;;;;;;5023297;28;20535;-67
2023/07/25 04:14:40;;;;;;;0.00;0.00;;;13.40;99.90;;;;;;5025893;28;20151;-67
2023/07/25 04:17:06;;;;;;;0.38;0.38;;;13.50;99.90;;;;;;5027279;28;20050;-67
2023/07/25 04:19:32;;;;;;;8.25;0.57;;;13.40;99.90;;;;;;5028468;28;20052;-67
2023/07/25 04:21:57;;;;;;;0.00;0.00;;;13.40;99.90;;;;;;5024630;28;20429;-67
2023/07/25 04:24:23;;;;;;;0.13;0.13;;;13.40;99.90;;;;;;5024047;28;20496;-67
2023/07/25 04:26:49;;;;;;;0.00;0.00;;;13.50;99.90;;;;;;5021620;28;20048;-67
2023/07/25 04:29:14;;;;;;;0.10;0.10;;;13.50;99.90;;;;;;5026117;28;20116;-67
2023/07/25 04:31:40;;;;;;;0.00;0.00;;;13.50;99.90;;;;;;5028091;28;20115;-67
2023/07/25 04:34:05;;;;;;;0.10;0.10;;;13.60;99.90;;;;;;5017145;28;20053;-67
2023/07/25 04:36:31;;;;;;;0.08;0.08;;;13.60;99.90;;;;;;5022172;28;20439;-67
2023/07/25 04:38:56;;;;;;;0.82;0.80;;;13.60;99.90;;;;;;5030263;28;20033;-67
2023/07/25 04:41:23;;;;;;;0.00;0.00;;;13.70;99.90;;;;;;5031252;28;20052;-67
2023/07/25 04:43:48;;;;;;;0.00;0.00;;;13.70;99.90;;;;;;5021486;28;20442;-67
2023/07/25 04:46:14;;;;;;;0.70;0.70;;;13.70;99.90;;;;;;5028382;28;20091;-67
2023/07/25 04:48:39;;;;;;;0.00;0.00;;;13.70;99.90;;;;;;5024747;28;20034;-67
2023/07/25 04:51:05;;;;;;;0.00;0.00;;;13.80;99.90;;;;;;5023858;28;20053;-67
2023/07/25 04:53:31;;;;;;;0.00;0.00;;;13.80;99.90;;;;;;5028233;28;20084;-67
2023/07/25 04:55:56;;;;;;;0.20;0.20;;;13.90;99.90;;;;;;5024873;28;20094;-67
2023/07/25 04:58:22;;;;;;;0.10;0.10;;;14.00;99.90;;;;;;5021102;28;20053;-67
2023/07/25 05:00:47;;;;;;;0.00;0.00;;;14.00;99.90;;;;;;5032201;28;20080;-67
2023/07/25 05:03:13;;;;;;;0.10;0.10;;;14.00;99.90;;;;;;5022722;28;21473;-67
2023/07/25 05:05:38;;;;;;;0.10;0.10;;;14.00;99.90;;;;;;5025273;28;20048;-67
2023/07/25 05:08:04;;;;;;;0.10;0.10;;;14.10;99.90;;;;;;5020903;28;20050;-67
2023/07/25 05:10:31;;;;;;;0.10;0.10;;;14.10;99.90;;;;;;5021882;28;20048;-67
2023/07/25 05:12:57;;;;;;;0.00;0.00;;;14.10;99.90;;;;;;5026012;28;20045;-67
2023/07/25 05:15:23;;;;;;;3.30;1.35;;;14.10;99.90;;;;;;5020077;28;20037;-67
2023/07/25 05:17:48;;;;;;;0.00;0.00;;;14.20;99.90;;;;;;5022604;28;20046;-67
2023/07/25 05:20:14;;;;;;;0.00;0.00;;;14.20;99.90;;;;;;5026909;28;20050;-67
2023/07/25 05:22:40;;;;;;;0.28;0.28;;;14.20;99.90;;;;;;5025380;28;20029;-67
2023/07/25 05:25:06;;;;;;;0.00;0.00;;;14.20;99.90;;;;;;5022242;28;20102;-67
2023/07/25 05:27:32;;;;;;;0.00;0.00;;;14.20;99.90;;;;;;5022989;28;20060;-67
2023/07/25 05:29:57;;;;;;;0.00;0.00;;;14.20;99.90;;;;;;5025879;28;20042;-67
2023/07/25 05:32:23;;;;;;;0.05;0.05;;;14.20;99.90;;;;;;5024028;28;20056;-67
2023/07/25 05:34:48;;;;;;;0.10;0.10;;;14.20;99.90;;;;;;5027260;28;20042;-67
2023/07/25 05:37:17;;;;;;;0.00;0.00;;;14.30;99.90;;;;;;5021115;28;20046;-67
2023/07/25 05:39:43;;;;;;;0.00;0.00;;;14.30;99.90;;;;;;5027336;28;20053;-67
2023/07/25 05:42:08;;;;;;;0.00;0.00;;;14.30;99.90;;;;;;5021550;28;20039;-67
2023/07/25 05:44:34;;;;;;;0.20;0.20;;;14.40;99.90;;;;;;5022648;28;20045;-67
2023/07/25 05:47:02;;;;;;;0.32;0.32;;;14.40;99.90;;;;;;5014747;28;20128;-67
2023/07/25 05:49:28;;;;;;;0.10;0.10;;;14.50;99.90;;;;;;5019267;28;20038;-67
2023/07/25 05:51:53;;;;;;;0.10;0.10;;;14.60;99.90;;;;;;5020476;28;20044;-67
2023/07/25 05:54:19;;;;;;;0.20;0.20;;;14.60;99.90;;;;;;5026973;28;20554;-67
2023/07/25 05:56:45;;;;;;;0.15;0.15;;;14.60;99.90;;;;;;5021284;28;20132;-67
2023/07/25 05:59:10;;;;;;;0.05;0.05;;;14.70;99.90;;;;;;5029722;28;20041;-67
2023/07/25 06:01:39;;;;;;;0.00;0.00;;;14.80;99.90;;;;;;5024766;28;20050;-67
2023/07/25 06:04:05;;;;;;;0.03;0.03;;;14.80;99.90;;;;;;5024986;28;20050;-67
2023/07/25 06:06:30;;;;;;;0.00;0.00;;;14.80;99.90;;;;;;5022246;28;20034;-67
2023/07/25 06:08:56;;;;;;;0.10;0.10;;;14.90;99.90;;;;;;5016938;28;20103;-67
2023/07/25 06:11:23;;;;;;;0.00;0.00;;;15.10;99.90;;;;;;5023247;28;20049;-67
2023/07/25 06:13:49;;;;;;;0.00;0.00;;;15.20;99.90;;;;;;5028501;28;20041;-67
2023/07/25 06:16:17;;;;;;;0.00;0.00;;;15.20;99.90;;;;;;5016838;28;20607;-67
2023/07/25 06:18:43;;;;;;;0.00;0.00;;;15.40;99.90;;;;;;5019298;28;20473;-67
2023/07/25 06:21:09;;;;;;;0.00;0.00;;;15.50;99.90;;;;;;5027000;28;20136;-67
2023/07/25 06:23:34;;;;;;;0.00;0.00;;;15.50;99.90;;;;;;5028628;28;20033;-67
2023/07/25 06:26:00;;;;;;;0.00;0.00;;;15.60;99.90;;;;;;5015173;28;20092;-67
2023/07/25 06:28:26;;;;;;;0.00;0.00;;;15.60;99.90;;;;;;5023888;28;20141;-67
2023/07/25 06:30:51;;;;;;;0.30;0.30;;;15.60;99.90;;;;;;5020552;28;20470;-67
2023/07/25 06:33:17;;;;;;;0.28;0.28;;;15.60;99.90;;;;;;5030816;28;20049;-68
2023/07/25 06:35:43;;;;;;;0.00;0.00;;;15.60;99.90;;;;;;5019361;28;20038;-68
2023/07/25 06:38:08;;;;;;;0.00;0.00;;;15.60;99.90;;;;;;5018346;28;20386;-68
2023/07/25 06:40:34;;;;;;;0.00;0.00;;;15.50;99.90;;;;;;5018321;28;20049;-68
2023/07/25 06:42:59;;;;;;;0.00;0.00;;;15.50;99.90;;;;;;5024450;28;20046;-68
2023/07/25 06:45:25;;;;;;;0.00;0.00;;;15.50;99.90;;;;;;5016602;28;20166;-68
2023/07/25 06:47:50;;;;;;;0.10;0.10;;;15.40;99.90;;;;;;5012951;28;20053;-68
2023/07/25 06:50:16;;;;;;;0.00;0.00;;;15.40;99.90;;;;;;5025283;28;20041;-67
2023/07/25 06:52:42;;;;;;;0.00;0.00;;;15.40;99.90;;;;;;5026820;28;20063;-68
2023/07/25 06:55:08;;;;;;;0.00;0.00;;;15.50;99.90;;;;;;5023809;28;20092;-68
2023/07/25 06:57:34;;;;;;;0.00;0.00;;;15.50;99.90;;;;;;5020779;28;20113;-67
2023/07/25 07:00:00;;;;;;;0.08;0.08;;;15.60;99.90;;;;;;5024360;28;20579;-68
2023/07/25 07:02:25;;;;;;;0.00;0.00;;;15.70;99.90;;;;;;5015144;28;20049;-68
2023/07/25 07:04:51;;;;;;;0.10;0.10;;;15.70;99.90;;;;;;5011682;28;20044;-69
2023/07/25 07:07:17;;;;;;;0.00;0.00;;;15.80;99.90;;;;;;5021145;28;20836;-69
2023/07/25 07:09:42;;;;;;;0.10;0.10;;;15.90;99.90;;;;;;5016564;28;20046;-69
2023/07/25 07:12:08;;;;;;;2.53;1.08;;;15.90;99.90;;;;;;5022630;28;20045;-69
2023/07/25 07:14:34;;;;;;;1.25;0.65;;;15.90;99.90;;;;;;5024240;28;20037;-69
2023/07/25 07:16:59;;;;;;;0.00;0.00;;;16.00;99.90;;;;;;5022444;28;22184;-69
2023/07/25 07:19:25;;;;;;;0.00;0.00;;;16.00;99.90;;;;;;5023436;28;20128;-69
2023/07/25 07:21:50;;;;;;;0.10;0.10;;;16.10;99.90;;;;;;5027694;28;20041;-69
2023/07/25 07:24:16;;;;;;;0.00;0.00;;;16.00;99.90;;;;;;5026188;28;20056;-69
2023/07/25 07:26:42;;;;;;;0.00;0.00;;;16.00;99.90;;;;;;5023404;28;20131;-69
2023/07/25 07:29:09;;;;;;;0.75;0.75;;;16.10;99.90;;;;;;5026395;28;20061;-68
2023/07/25 07:31:35;;;;;;;0.00;0.00;;;16.20;99.90;;;;;;5021693;28;20098;-68
2023/07/25 07:34:14;;;;;;;0.17;0.17;;;16.20;99.90;;;;;;5026701;28;20049;-68
2023/07/25 07:36:40;;;;;;;0.00;0.00;;;16.20;99.90;;;;;;5022841;28;20034;-69
2023/07/25 07:39:06;;;;;;;0.00;0.00;;;16.20;99.90;;;;;;5017739;28;20124;-68
2023/07/25 07:41:31;;;;;;;0.00;0.00;;;16.20;99.90;;;;;;5019797;28;20766;-67
2023/07/25 07:43:57;;;;;;;0.00;0.00;;;16.30;99.90;;;;;;5016524;28;20073;-69
2023/07/25 07:46:23;;;;;;;0.00;0.00;;;16.30;99.90;;;;;;5025829;28;20056;-69
2023/07/25 07:48:48;;;;;;;0.45;0.45;;;16.30;99.90;;;;;;5028659;28;20057;-69
2023/07/25 07:51:14;;;;;;;0.00;0.00;;;16.40;99.90;;;;;;5020721;28;20396;-68
2023/07/25 07:53:40;;;;;;;0.00;0.00;;;16.50;99.90;;;;;;5025219;28;20544;-69
2023/07/25 07:56:07;;;;;;;0.00;0.00;;;16.50;99.90;;;;;;5024809;28;20122;-69
2023/07/25 07:58:32;;;;;;;0.40;0.40;;;16.60;99.90;;;;;;5024352;28;20262;-68
2023/07/25 08:00:58;;;;;;;0.00;0.00;;;16.80;99.90;;;;;;5026352;28;20533;-69
2023/07/25 08:03:24;;;;;;;0.00;0.00;;;16.80;99.90;;;;;;5028918;28;20049;-68
2023/07/25 08:05:59;;;;;;;0.00;0.00;;;17.00;99.90;;;;;;5015298;28;20049;-69
2023/07/25 08:08:24;;;;;;;0.00;0.00;;;17.00;99.90;;;;;;5022831;28;20050;-68
2023/07/25 08:10:50;;;;;;;0.00;0.00;;;17.00;99.90;;;;;;5016754;28;20052;-69
2023/07/25 08:13:15;;;;;;;0.77;0.70;;;17.00;99.90;;;;;;5030220;28;20541;-70
2023/07/25 08:15:41;;;;;;;0.00;0.00;;;16.90;99.90;;;;;;5019800;28;20041;-69
2023/07/25 08:18:07;;;;;;;31.77;1.85;;;16.90;99.90;;;;;;5015517;28;20556;-69
2023/07/25 08:20:32;;;;;;;0.00;0.00;;;16.80;99.90;;;;;;5022890;28;20382;-69
2023/07/25 08:22:58;;;;;;;0.00;0.00;;;16.80;99.90;;;;;;5022089;28;20375;-69
2023/07/25 08:25:24;;;;;;;0.00;0.00;;;16.80;99.90;;;;;;5024579;28;20129;-69
2023/07/25 08:27:49;;;;;;;4.72;1.20;;;16.80;99.90;;;;;;5019425;28;20045;-70
2023/07/25 08:30:15;;;;;;;0.00;0.00;;;16.90;99.90;;;;;;5023883;28;20501;-70
2023/07/25 08:32:40;;;;;;;0.00;0.00;;;16.90;99.90;;;;;;5031385;28;20045;-69
2023/07/25 08:35:06;;;;;;;0.00;0.00;;;17.10;99.90;;;;;;5018047;28;20057;-69
2023/07/25 08:37:32;;;;;;;0.00;0.00;;;17.20;99.90;;;;;;5029424;28;20547;-70
2023/07/25 08:39:58;;;;;;;0.00;0.00;;;17.30;99.90;;;;;;5024573;28;20034;-69
2023/07/25 08:42:25;;;;;;;0.00;0.00;;;17.40;99.90;;;;;;5028549;28;20077;-70
2023/07/25 08:44:52;;;;;;;0.55;0.38;;;17.40;99.90;;;;;;5017596;28;20049;-70
2023/07/25 08:47:22;;;;;;;0.00;0.00;;;17.40;99.90;;;;;;5023291;28;20498;-70
2023/07/25 08:49:53;;;;;;;0.00;0.00;;;17.40;99.90;;;;;;5023513;28;20033;-70
2023/07/25 08:52:20;;;;;;;0.00;0.00;;;17.40;99.90;;;;;;5022452;28;20147;-69
2023/07/25 08:54:48;;;;;;;0.00;0.00;;;17.40;99.90;;;;;;5021647;28;20510;-69
2023/07/25 08:57:16;;;;;;;0.35;0.35;;;17.50;99.90;;;;;;5028888;28;20041;-69
2023/07/25 08:59:42;;;;;;;0.10;0.10;;;17.60;99.90;;;;;;5023526;28;20037;-70
2023/07/25 09:02:10;;;;;;;0.20;0.20;;;17.60;99.90;;;;;;5030160;28;20536;-69
2023/07/25 09:04:35;;;;;;;0.00;0.00;;;17.60;99.90;;;;;;5025735;28;20449;-69
2023/07/25 09:07:01;;;;;;;0.00;0.00;;;17.80;99.90;;;;;;5022946;28;20069;-69
2023/07/25 09:09:27;;;;;;;0.00;0.00;;;17.90;99.90;;;;;;5024462;28;20075;-69
2023/07/25 09:11:54;;;;;;;0.10;0.10;;;17.90;99.90;;;;;;5026682;28;20053;-70
2023/07/25 09:14:20;;;;;;;0.00;0.00;;;18.00;99.90;;;;;;5018654;28;20045;-69
2023/07/25 09:16:46;;;;;;;0.20;0.10;;;17.90;99.90;;;;;;5014412;28;20058;-69
2023/07/25 09:19:12;;;;;;;0.00;0.00;;;17.80;99.90;;;;;;5026251;28;20052;-69
2023/07/25 09:21:57;;;;;;;0.28;0.28;;;17.80;99.90;;;;;;5018487;28;20041;-69
2023/07/25 09:24:23;;;;;;;0.10;0.10;;;18.00;99.90;;;;;;5022991;28;20064;-69
2023/07/25 09:26:50;;;;;;;0.00;0.00;;;18.10;99.90;;;;;;5024585;28;20135;-69
2023/07/25 09:29:17;;;;;;;0.52;0.40;;;18.20;99.90;;;;;;5027169;28;20531;-69
2023/07/25 09:31:45;;;;;;;0.63;0.47;;;18.30;99.90;;;;;;5026810;28;20053;-69
2023/07/25 09:34:17;;;;;;;0.00;0.00;;;18.40;99.90;;;;;;5028749;28;20057;-69
2023/07/25 09:36:49;;;;;;;0.00;0.00;;;18.40;99.90;;;;;;5025673;28;20041;-69
2023/07/25 09:39:16;;;;;;;0.00;0.00;;;18.40;99.90;;;;;;5021895;28;20057;-68
2023/07/25 09:41:43;;;;;;;0.00;0.00;;;18.50;99.90;;;;;;5035428;28;20052;-69
2023/07/25 09:44:09;;;;;;;0.00;0.00;;;18.70;99.90;;;;;;5026116;28;20436;-69
2023/07/25 09:46:34;;;;;;;0.00;0.00;;;18.90;99.90;;;;;;5022827;28;20063;-69
2023/07/25 09:49:00;;;;;;;0.00;0.00;;;18.80;99.90;;;;;;5022277;28;20059;-69
2023/07/25 09:51:26;;;;;;;0.15;0.15;;;18.80;99.90;;;;;;5027727;28;20034;-69
2023/07/25 09:53:54;;;;;;;0.00;0.00;;;18.60;99.90;;;;;;5027801;28;20057;-69
2023/07/25 09:56:24;;;;;;;0.00;0.00;;;18.60;99.90;;;;;;5019844;28;20042;-69
2023/07/25 09:58:51;;;;;;;0.00;0.00;;;18.40;99.90;;;;;;5016984;28;20050;-69
2023/07/25 10:01:17;;;;;;;0.00;0.00;;;18.30;99.90;;;;;;5015269;28;20126;-69
2023/07/25 10:03:43;;;;;;;0.00;0.00;;;18.00;99.90;;;;;;5024522;28;20053;-69
2023/07/25 10:06:19;;;;;;;0.00;0.00;;;17.90;99.90;;;;;;5020973;28;20059;-69
2023/07/25 10:08:45;;;;;;;0.00;0.00;;;17.80;99.90;;;;;;5020858;28;20046;-68
2023/07/25 10:11:14;;;;;;;0.10;0.10;;;17.80;99.90;;;;;;5028479;28;20378;-69
2023/07/25 10:13:43;;;;;;;0.00;0.00;;;17.90;99.90;;;;;;5022080;28;20037;-68
2023/07/25 10:16:10;;;;;;;0.00;0.00;;;17.80;99.90;;;;;;5020795;28;20424;-68
2023/07/25 10:18:36;;;;;;;0.08;0.08;;;17.90;99.90;;;;;;5029250;28;20036;-67
2023/07/25 10:21:02;;;;;;;0.00;0.00;;;18.00;99.90;;;;;;5031189;28;20049;-68
2023/07/25 10:23:34;;;;;;;0.00;0.00;;;18.00;99.90;;;;;;5022492;28;20037;-68
2023/07/25 10:26:13;;;;;;;0.00;0.00;;;18.10;99.90;;;;;;5029832;28;20041;-68
2023/07/25 10:28:39;;;;;;;0.10;0.10;;;18.10;99.90;;;;;;5019680;28;20057;-69
2023/07/25 10:31:07;;;;;;;0.35;0.35;;;18.50;99.90;;;;;;5018865;28;20042;-69
2023/07/25 10:33:37;;;;;;;0.00;0.00;;;18.90;99.90;;;;;;5032693;28;20072;-68
2023/07/25 10:36:03;;;;;;;0.00;0.00;;;19.10;99.90;;;;;;5024630;28;20096;-69
2023/07/25 10:38:33;;;;;;;0.00;0.00;;;19.10;99.90;;;;;;5021287;28;20038;-69
2023/07/25 10:41:00;;;;;;;0.10;0.10;;;19.00;99.90;;;;;;5021759;28;20037;-69
2023/07/25 10:43:28;;;;;;;5.50;1.30;;;18.80;99.90;;;;;;5018941;28;20045;-69
2023/07/25 10:45:55;;;;;;;0.00;0.00;;;18.80;99.90;;;;;;5023264;28;20133;-69
2023/07/25 10:48:31;;;;;;;0.45;0.45;;;18.60;99.90;;;;;;5027543;28;20053;-69
2023/07/25 10:50:57;;;;;;;0.20;0.20;;;18.50;99.90;;;;;;5017672;28;20048;-69
2023/07/25 10:53:24;;;;;;;0.00;0.00;;;18.40;99.90;;;;;;5027304;28;20084;-69
2023/07/25 10:56:05;;;;;;;0.00;0.00;;;18.30;99.90;;;;;;5023697;28;20042;-69
2023/07/25 10:58:39;;;;;;;0.10;0.10;;;18.30;99.90;;;;;;5019787;28;20068;-69
2023/07/25 11:01:05;;;;;;;0.00;0.00;;;18.30;99.90;;;;;;5023100;28;20120;-69
2023/07/25 11:03:36;;;;;;;0.40;0.40;;;18.30;99.90;;;;;;5018536;28;20401;-69
2023/07/25 11:06:07;;;;;;;0.00;0.00;;;18.20;99.90;;;;;;5021444;28;20045;-69
2023/07/25 11:08:37;;;;;;;0.00;0.00;;;18.30;99.90;;;;;;5021163;28;20041;-69
2023/07/25 11:11:06;;;;;;;0.00;0.00;;;18.50;99.90;;;;;;5027541;28;20120;-69
2023/07/25 11:13:34;;;;;;;0.00;0.00;;;18.90;99.90;;;;;;5017298;28;20106;-70
2023/07/25 11:16:03;;;;;;;0.00;0.00;;;18.80;99.90;;;;;;5021373;28;20048;-69
2023/07/25 11:18:35;;;;;;;0.00;0.00;;;18.80;99.90;;;;;;5016673;28;20052;-69
2023/07/25 11:21:05;;;;;;;0.13;0.13;;;18.80;99.90;;;;;;5019366;28;20474;-69
2023/07/25 11:23:31;;;;;;;0.10;0.10;;;18.80;99.90;;;;;;5020439;28;20048;-69
2023/07/25 11:25:59;;;;;;;0.00;0.00;;;18.70;99.90;;;;;;5021631;28;20104;-69
2023/07/25 11:28:25;;;;;;;0.00;0.00;;;18.70;99.90;;;;;;5025602;28;20050;-69
2023/07/25 11:30:51;;;;;;;0.00;0.00;;;18.50;99.90;;;;;;5016759;28;20125;-69
2023/07/25 11:33:18;;;;;;;0.00;0.00;;;18.40;99.90;;;;;;5028634;28;20129;-69
2023/07/25 11:35:43;;;;;;;0.00;0.00;;;18.20;99.90;;;;;;5025464;28;20045;-69
2023/07/25 11:38:10;;;;;;;0.00;0.00;;;18.20;99.90;;;;;;5019490;28;20046;-69
2023/07/25 11:40:38;;;;;;;0.00;0.00;;;18.00;99.90;;;;;;5016738;28;20112;-69
2023/07/25 11:43:13;;;;;;;0.10;0.10;;;17.80;99.90;;;;;;5021912;28;20045;-69
2023/07/25 11:45:39;;;;;;;0.00;0.00;;;17.70;99.90;;;;;;5024024;28;20038;-69
2023/07/25 11:48:08;;;;;;;0.00;0.00;;;17.40;99.90;;;;;;5014884;28;20045;-69
2023/07/25 11:50:34;;;;;;;0.00;0.00;;;17.40;99.90;;;;;;5020783;28;20045;-69
2023/07/25 11:53:01;;;;;;;0.00;0.00;;;17.50;99.90;;;;;;5012979;28;20445;-70
2023/07/25 11:55:28;;;;;;;0.20;0.20;;;17.50;99.90;;;;;;5021230;28;20056;-68
2023/07/25 11:57:54;;;;;;;0.10;0.10;;;17.50;99.90;;;;;;5024726;28;20033;-69
2023/07/25 12:00:21;;;;;;;0.05;0.05;;;17.50;99.90;;;;;;5026781;28;20038;-68
2023/07/25 12:02:47;;;;;;;0.10;0.10;;;17.60;99.90;;;;;;5022010;28;20096;-68
2023/07/25 12:05:29;;;;;;;0.00;0.00;;;17.80;99.90;;;;;;5023234;28;20572;-69
2023/07/25 12:08:02;;;;;;;0.00;0.00;;;17.80;99.90;;;;;;5012272;28;20406;-69
2023/07/25 12:10:29;;;;;;;;;;;18.00;99.90;;;;;;5020833;28;20046;-69
2023/07/25 12:12:55;;;;;;;0.00;0.00;;;18.00;99.90;;;;;;5019638;28;20008;-68
2023/07/25 12:15:23;;;;;;;0.08;0.08;;;18.10;99.90;;;;;;5029694;28;20523;-68
2023/07/25 12:17:49;;;;;;;0.00;0.00;;;18.30;99.90;;;;;;5021554;28;20044;-68
2023/07/25 12:20:19;;;;;;;0.00;0.00;;;18.20;99.90;;;;;;5028019;28;20045;-69
2023/07/25 12:22:45;;;;;;;0.00;0.00;;;18.40;99.90;;;;;;5023322;28;20041;-68
2023/07/25 12:25:16;;;;;;;0.10;0.10;;;18.50;99.90;;;;;;5028963;28;20037;-68
2023/07/25 12:27:46;;;;;;;0.00;0.00;;;18.60;99.90;;;;;;5027265;28;20038;-67
2023/07/25 12:30:12;;;;;;;0.25;0.25;;;18.70;99.90;;;;;;5025625;28;20060;-68
2023/07/25 12:32:37;;;;;;;0.00;0.00;;;19.00;99.90;;;;;;5020969;28;20124;-68
2023/07/25 12:35:03;;;;;;;0.00;0.00;;;19.70;99.90;;;;;;5027809;28;20089;-68
2023/07/25 12:37:29;;;;;;;0.00;0.00;;;19.70;99.90;;;;;;5025157;28;20096;-68
2023/07/25 12:39:55;;;;;;;0.00;0.00;;;19.70;99.90;;;;;;5022787;28;20107;-67
2023/07/25 12:42:20;;;;;;;4.60;0.45;;;19.40;99.90;;;;;;5024954;28;20053;-68
2023/07/25 12:44:46;;;;;;;0.00;0.00;;;19.20;99.90;;;;;;5022645;28;20056;-68